»·PEaware :: DFGCW KGTF-KBIL

DFGCW :: KGTF-KBIL

FLIGHT INFORMATION

Flight Status: Arrived
Operator: Unknown
More flights by this operator :: More flights under this callsign
Pilot: Klaus A. (15485)
Aircraft: PILATUS PC-12 EAGLE
(PC12)
More flights by this aircraft type
Origin: KGTF Great Falls Intl
United States
Destination: KBIL Billings Logan Intl
United States
More flights between these airports :: More routes between these airports
Route: GTF V187 ZERZO V187 BIL
File this flight plan on PilotEdge
Remarks:
Altitude:
(Current/Filed)
15,000ft
Speed:
(Current/Filed)
230kts
Departed: 28-Mar-19 09:50 AM
Arrived: 28-Mar-19 10:40 AM
Distance/Time
Traveled:
154nm/0:49
Distance/Time
To Go:
Arrived

Flight Plot

Page will automatically refresh every two minutes.

Flight plan parsing failed; only flown route is shown


Map Options




Map Legend


Flown Route
Filed Route
Departure Airport
Arrival Airport
Navaid (VOR, NDB)
Fix

Horizontal Profiles

Position Reports

Time Latitude Longitude Heading Altitude Ground
Speed
28-Mar-19 09:30 47.479346 -111.364543 268 3681ft 0kts
28-Mar-19 09:31 47.479346 -111.364543 268 3681ft 0kts
28-Mar-19 09:32 47.479346 -111.364543 268 3681ft 0kts
28-Mar-19 09:33 47.479346 -111.364543 268 3681ft 0kts
28-Mar-19 09:34 47.479346 -111.364543 268 3681ft 0kts
28-Mar-19 09:35 47.479346 -111.364543 268 3681ft 0kts
28-Mar-19 09:36 47.479346 -111.364543 268 3681ft 0kts
28-Mar-19 09:37 47.479346 -111.364543 268 3681ft 0kts
28-Mar-19 09:38 47.479346 -111.364543 268 3681ft 0kts
28-Mar-19 09:39 47.478882 -111.366892 224 3682ft 11kts
28-Mar-19 09:40 47.476416 -111.370573 226 3682ft 14kts
28-Mar-19 09:41 47.472504 -111.376354 225 3682ft 25kts
28-Mar-19 09:42 47.468729 -111.382730 314 3681ft 0kts
28-Mar-19 09:43 47.468729 -111.382730 313 3681ft 0kts
28-Mar-19 09:44 47.468729 -111.382730 313 3681ft 0kts
28-Mar-19 09:45 47.468729 -111.382730 313 3681ft 0kts
28-Mar-19 09:46 47.468729 -111.382730 313 3681ft 0kts
28-Mar-19 09:47 47.468729 -111.382730 313 3681ft 0kts
28-Mar-19 09:48 47.469727 -111.383291 45 3682ft 2kts
28-Mar-19 09:49 47.476904 -111.372795 44 3979ft 98kts
28-Mar-19 09:50 47.489136 -111.391850 214 5672ft 146kts
28-Mar-19 09:51 47.451102 -111.413168 200 7636ft 153kts
28-Mar-19 09:52 47.432207 -111.373820 94 9358ft 148kts
28-Mar-19 09:53 47.412938 -111.321242 106 11112ft 144kts
28-Mar-19 09:54 47.390784 -111.270456 123 12610ft 151kts
28-Mar-19 09:55 47.367588 -111.217311 122 14104ft 158kts
28-Mar-19 09:56 47.342811 -111.159722 122 15000ft 194kts
28-Mar-19 09:57 47.310277 -111.083694 122 14993ft 236kts
28-Mar-19 09:58 47.273936 -110.998795 122 14989ft 250kts
28-Mar-19 09:59 47.236314 -110.911186 122 14988ft 253kts
28-Mar-19 10:00 47.198778 -110.824096 122 14987ft 251kts
28-Mar-19 10:01 47.161387 -110.737515 122 14988ft 249kts
28-Mar-19 10:02 47.124343 -110.651964 123 14987ft 248kts
28-Mar-19 10:03 47.087200 -110.566544 123 14986ft 248kts
28-Mar-19 10:04 47.050006 -110.481266 123 15005ft 248kts
28-Mar-19 10:05 47.013223 -110.397180 123 14995ft 248kts
28-Mar-19 10:06 46.975664 -110.312103 124 14996ft 248kts
28-Mar-19 10:07 46.938060 -110.227109 124 14995ft 249kts
28-Mar-19 10:08 46.900299 -110.141629 125 14996ft 250kts
28-Mar-19 10:09 46.858825 -110.060187 134 14998ft 250kts
28-Mar-19 10:10 46.806289 -109.994525 137 14982ft 250kts
28-Mar-19 10:11 46.756303 -109.923632 137 14980ft 250kts
28-Mar-19 10:13 46.706384 -109.853467 140 14987ft 248kts
28-Mar-19 10:14 46.656345 -109.783368 140 14990ft 250kts
28-Mar-19 10:15 46.605869 -109.712943 141 14990ft 252kts
28-Mar-19 10:16 46.555020 -109.642277 141 14990ft 253kts
28-Mar-19 10:17 46.504322 -109.571634 140 14999ft 253kts
28-Mar-19 10:18 46.453247 -109.500731 141 14999ft 254kts
28-Mar-19 10:19 46.402182 -109.430138 141 14999ft 254kts
28-Mar-19 10:20 46.353753 -109.363316 141 14996ft 229kts
28-Mar-19 10:21 46.308923 -109.302176 142 14285ft 215kts
28-Mar-19 10:22 46.266514 -109.244015 141 12970ft 206kts
28-Mar-19 10:23 46.225635 -109.188163 140 11663ft 199kts
28-Mar-19 10:24 46.187419 -109.135907 139 10984ft 165kts
28-Mar-19 10:25 46.152595 -109.088621 139 10902ft 186kts
28-Mar-19 10:26 46.117226 -109.036602 134 9883ft 179kts
28-Mar-19 10:27 46.082860 -108.986551 154 8851ft 173kts
28-Mar-19 10:28 46.035884 -108.978000 170 7866ft 170kts
28-Mar-19 10:29 45.998797 -108.944469 130 6873ft 164kts
28-Mar-19 10:30 45.963278 -108.902175 140 6005ft 163kts
28-Mar-19 10:31 45.933683 -108.872894 140 6009ft 125kts
28-Mar-19 10:32 45.903169 -108.842739 140 5999ft 136kts
28-Mar-19 10:33 45.880933 -108.804743 88 6079ft 124kts
28-Mar-19 10:34 45.868287 -108.755642 111 5935ft 133kts
28-Mar-19 10:35 45.853936 -108.707996 109 5306ft 137kts
28-Mar-19 10:36 45.842639 -108.665605 106 5388ft 111kts
28-Mar-19 10:36 45.833532 -108.629826 104 4790ft 114kts
28-Mar-19 10:38 45.819479 -108.578717 107 4059ft 116kts
28-Mar-19 10:39 45.809163 -108.541826 113 3657ft 48kts
28-Mar-19 10:39 45.807320 -108.537241 201 3657ft 0kts
28-Mar-19 10:41 45.806547 -108.537707 201 3657ft 0kts
28-Mar-19 10:41 45.806278 -108.537860 203 3656ft 7kts
28-Mar-19 10:42 45.804635 -108.542360 270 3657ft 16kts
28-Mar-19 10:44 45.804992 -108.543905 357 3657ft 0kts
28-Mar-19 10:44 45.804992 -108.543905 357 3657ft 0kts
28-Mar-19 10:45 45.804992 -108.543905 357 3657ft 0kts

Navigation Log

Ident Type
Flight plan parsing failed, navigation log unavailable